sensor_id;sensor_type;location;lat;lon;timestamp;P1;durP1;ratioP1;P2;durP2;ratioP2
15871;SDS011;8035;51.962;7.162;2023-03-29T00:00:57;7.17;;;5.27;;
15871;SDS011;8035;51.962;7.162;2023-03-29T00:03:26;9.33;;;6.57;;
15871;SDS011;8035;51.962;7.162;2023-03-29T00:05:52;7.63;;;5.13;;
15871;SDS011;8035;51.962;7.162;2023-03-29T00:08:22;7.73;;;5.60;;
15871;SDS011;8035;51.962;7.162;2023-03-29T00:10:48;6.77;;;5.10;;
15871;SDS011;8035;51.962;7.162;2023-03-29T00:13:16;6.43;;;4.80;;
15871;SDS011;8035;51.962;7.162;2023-03-29T00:15:42;6.10;;;5.33;;
15871;SDS011;8035;51.962;7.162;2023-03-29T00:18:08;6.10;;;4.83;;
15871;SDS011;8035;51.962;7.162;2023-03-29T00:20:34;8.07;;;5.17;;
15871;SDS011;8035;51.962;7.162;2023-03-29T00:23:00;8.63;;;5.03;;
15871;SDS011;8035;51.962;7.162;2023-03-29T00:25:26;7.20;;;4.70;;
15871;SDS011;8035;51.962;7.162;2023-03-29T00:27:52;7.37;;;4.50;;
15871;SDS011;8035;51.962;7.162;2023-03-29T00:30:18;7.97;;;4.70;;
15871;SDS011;8035;51.962;7.162;2023-03-29T00:32:44;6.30;;;4.50;;
15871;SDS011;8035;51.962;7.162;2023-03-29T00:35:11;6.73;;;4.47;;
15871;SDS011;8035;51.962;7.162;2023-03-29T00:37:37;5.13;;;4.10;;
15871;SDS011;8035;51.962;7.162;2023-03-29T00:40:04;5.07;;;4.17;;
15871;SDS011;8035;51.962;7.162;2023-03-29T00:42:36;5.67;;;4.57;;
15871;SDS011;8035;51.962;7.162;2023-03-29T00:45:04;5.70;;;4.13;;
15871;SDS011;8035;51.962;7.162;2023-03-29T00:47:33;5.57;;;4.50;;
15871;SDS011;8035;51.962;7.162;2023-03-29T00:50:23;5.17;;;4.23;;
15871;SDS011;8035;51.962;7.162;2023-03-29T00:52:55;4.90;;;4.13;;
15871;SDS011;8035;51.962;7.162;2023-03-29T00:55:22;6.93;;;4.50;;
15871;SDS011;8035;51.962;7.162;2023-03-29T00:57:49;6.40;;;4.67;;
15871;SDS011;8035;51.962;7.162;2023-03-29T01:00:18;5.03;;;4.23;;
15871;SDS011;8035;51.962;7.162;2023-03-29T01:02:52;4.93;;;4.27;;
15871;SDS011;8035;51.962;7.162;2023-03-29T01:05:30;6.33;;;4.20;;
15871;SDS011;8035;51.962;7.162;2023-03-29T01:07:59;5.37;;;3.90;;
15871;SDS011;8035;51.962;7.162;2023-03-29T01:10:34;4.83;;;4.03;;
15871;SDS011;8035;51.962;7.162;2023-03-29T01:13:10;4.00;;;3.60;;
15871;SDS011;8035;51.962;7.162;2023-03-29T01:15:39;6.03;;;4.23;;
15871;SDS011;8035;51.962;7.162;2023-03-29T01:18:06;7.43;;;4.53;;
15871;SDS011;8035;51.962;7.162;2023-03-29T01:20:42;5.37;;;4.20;;
15871;SDS011;8035;51.962;7.162;2023-03-29T01:28:38;6.80;;;4.23;;
15871;SDS011;8035;51.962;7.162;2023-03-29T01:31:14;4.70;;;4.20;;
15871;SDS011;8035;51.962;7.162;2023-03-29T01:33:43;7.03;;;4.20;;
15871;SDS011;8035;51.962;7.162;2023-03-29T01:36:32;5.10;;;4.10;;
15871;SDS011;8035;51.962;7.162;2023-03-29T01:38:59;5.87;;;3.70;;
15871;SDS011;8035;51.962;7.162;2023-03-29T01:44:19;5.50;;;4.40;;
15871;SDS011;8035;51.962;7.162;2023-03-29T01:46:46;6.00;;;3.90;;
15871;SDS011;8035;51.962;7.162;2023-03-29T01:54:17;5.00;;;3.73;;
15871;SDS011;8035;51.962;7.162;2023-03-29T01:56:45;5.70;;;3.70;;
15871;SDS011;8035;51.962;7.162;2023-03-29T01:59:14;6.17;;;3.57;;
15871;SDS011;8035;51.962;7.162;2023-03-29T02:01:44;7.10;;;4.00;;
15871;SDS011;8035;51.962;7.162;2023-03-29T02:04:13;4.47;;;3.50;;
15871;SDS011;8035;51.962;7.162;2023-03-29T02:06:41;5.97;;;3.77;;
15871;SDS011;8035;51.962;7.162;2023-03-29T02:09:08;4.93;;;3.70;;
15871;SDS011;8035;51.962;7.162;2023-03-29T02:11:35;4.93;;;3.87;;
15871;SDS011;8035;51.962;7.162;2023-03-29T02:14:02;5.50;;;3.53;;
15871;SDS011;8035;51.962;7.162;2023-03-29T02:16:33;4.97;;;3.57;;
15871;SDS011;8035;51.962;7.162;2023-03-29T02:18:59;7.70;;;3.87;;
15871;SDS011;8035;51.962;7.162;2023-03-29T02:21:27;6.73;;;3.37;;
15871;SDS011;8035;51.962;7.162;2023-03-29T02:23:55;4.50;;;3.70;;
15871;SDS011;8035;51.962;7.162;2023-03-29T02:26:24;6.87;;;3.90;;
15871;SDS011;8035;51.962;7.162;2023-03-29T02:28:50;3.97;;;3.57;;
15871;SDS011;8035;51.962;7.162;2023-03-29T02:31:19;5.33;;;4.10;;
15871;SDS011;8035;51.962;7.162;2023-03-29T02:36:17;4.93;;;4.10;;
15871;SDS011;8035;51.962;7.162;2023-03-29T02:38:43;5.47;;;4.03;;
15871;SDS011;8035;51.962;7.162;2023-03-29T02:41:10;4.47;;;4.00;;
15871;SDS011;8035;51.962;7.162;2023-03-29T02:43:36;5.53;;;3.87;;
15871;SDS011;8035;51.962;7.162;2023-03-29T02:46:04;4.63;;;3.67;;
15871;SDS011;8035;51.962;7.162;2023-03-29T02:48:31;6.40;;;4.17;;
15871;SDS011;8035;51.962;7.162;2023-03-29T02:51:00;4.83;;;3.93;;
15871;SDS011;8035;51.962;7.162;2023-03-29T02:53:29;6.00;;;4.23;;
15871;SDS011;8035;51.962;7.162;2023-03-29T02:55:56;6.50;;;4.00;;
15871;SDS011;8035;51.962;7.162;2023-03-29T02:58:26;4.50;;;4.00;;
15871;SDS011;8035;51.962;7.162;2023-03-29T03:00:53;7.60;;;4.10;;
15871;SDS011;8035;51.962;7.162;2023-03-29T03:03:20;4.67;;;3.67;;
15871;SDS011;8035;51.962;7.162;2023-03-29T03:05:46;5.07;;;3.97;;
15871;SDS011;8035;51.962;7.162;2023-03-29T03:08:13;6.47;;;4.03;;
15871;SDS011;8035;51.962;7.162;2023-03-29T03:10:39;6.17;;;3.80;;
15871;SDS011;8035;51.962;7.162;2023-03-29T03:13:05;7.40;;;3.73;;
15871;SDS011;8035;51.962;7.162;2023-03-29T03:15:31;4.90;;;3.77;;
15871;SDS011;8035;51.962;7.162;2023-03-29T03:18:01;5.17;;;3.97;;
15871;SDS011;8035;51.962;7.162;2023-03-29T03:20:27;4.83;;;3.67;;
15871;SDS011;8035;51.962;7.162;2023-03-29T03:22:53;4.60;;;3.50;;
15871;SDS011;8035;51.962;7.162;2023-03-29T03:25:21;4.37;;;3.73;;
15871;SDS011;8035;51.962;7.162;2023-03-29T03:27:47;4.57;;;3.97;;
15871;SDS011;8035;51.962;7.162;2023-03-29T03:30:14;5.73;;;3.80;;
15871;SDS011;8035;51.962;7.162;2023-03-29T03:32:40;5.10;;;3.67;;
15871;SDS011;8035;51.962;7.162;2023-03-29T03:35:07;4.80;;;3.77;;
15871;SDS011;8035;51.962;7.162;2023-03-29T03:37:35;3.47;;;3.13;;
15871;SDS011;8035;51.962;7.162;2023-03-29T03:40:02;4.00;;;3.60;;
15871;SDS011;8035;51.962;7.162;2023-03-29T03:42:29;6.70;;;3.87;;
15871;SDS011;8035;51.962;7.162;2023-03-29T03:44:56;5.40;;;3.57;;
15871;SDS011;8035;51.962;7.162;2023-03-29T03:47:22;4.27;;;3.60;;
15871;SDS011;8035;51.962;7.162;2023-03-29T03:49:48;3.80;;;3.37;;
15871;SDS011;8035;51.962;7.162;2023-03-29T03:52:15;6.43;;;3.70;;
15871;SDS011;8035;51.962;7.162;2023-03-29T03:54:41;4.67;;;3.57;;
15871;SDS011;8035;51.962;7.162;2023-03-29T03:57:10;5.17;;;3.50;;
15871;SDS011;8035;51.962;7.162;2023-03-29T03:59:36;6.30;;;3.67;;
15871;SDS011;8035;51.962;7.162;2023-03-29T04:02:03;4.17;;;3.47;;
15871;SDS011;8035;51.962;7.162;2023-03-29T04:04:29;3.97;;;3.57;;
15871;SDS011;8035;51.962;7.162;2023-03-29T04:06:55;4.70;;;3.50;;
15871;SDS011;8035;51.962;7.162;2023-03-29T04:09:27;6.03;;;3.80;;
15871;SDS011;8035;51.962;7.162;2023-03-29T04:11:53;4.87;;;3.20;;
15871;SDS011;8035;51.962;7.162;2023-03-29T04:14:20;5.50;;;3.67;;
15871;SDS011;8035;51.962;7.162;2023-03-29T04:16:46;4.67;;;4.00;;
15871;SDS011;8035;51.962;7.162;2023-03-29T04:19:12;4.80;;;3.83;;
15871;SDS011;8035;51.962;7.162;2023-03-29T04:21:38;4.30;;;3.80;;
15871;SDS011;8035;51.962;7.162;2023-03-29T04:24:04;6.47;;;3.83;;
15871;SDS011;8035;51.962;7.162;2023-03-29T04:26:30;6.53;;;3.80;;
15871;SDS011;8035;51.962;7.162;2023-03-29T04:28:57;4.17;;;3.63;;
15871;SDS011;8035;51.962;7.162;2023-03-29T04:31:23;4.27;;;3.83;;
15871;SDS011;8035;51.962;7.162;2023-03-29T04:33:49;4.13;;;3.47;;
15871;SDS011;8035;51.962;7.162;2023-03-29T04:36:16;6.60;;;3.93;;
15871;SDS011;8035;51.962;7.162;2023-03-29T04:38:42;6.27;;;4.30;;
15871;SDS011;8035;51.962;7.162;2023-03-29T04:41:08;4.87;;;4.00;;
15871;SDS011;8035;51.962;7.162;2023-03-29T04:43:34;5.10;;;4.17;;
15871;SDS011;8035;51.962;7.162;2023-03-29T04:46:00;5.83;;;4.20;;
15871;SDS011;8035;51.962;7.162;2023-03-29T04:48:27;5.50;;;4.63;;
15871;SDS011;8035;51.962;7.162;2023-03-29T04:50:55;6.73;;;4.93;;
15871;SDS011;8035;51.962;7.162;2023-03-29T04:53:21;6.30;;;4.33;;
15871;SDS011;8035;51.962;7.162;2023-03-29T04:55:47;6.43;;;4.30;;
15871;SDS011;8035;51.962;7.162;2023-03-29T04:58:13;9.97;;;5.30;;
15871;SDS011;8035;51.962;7.162;2023-03-29T05:00:39;6.00;;;4.63;;
15871;SDS011;8035;51.962;7.162;2023-03-29T05:03:06;8.53;;;5.00;;
15871;SDS011;8035;51.962;7.162;2023-03-29T05:05:35;7.33;;;5.03;;
15871;SDS011;8035;51.962;7.162;2023-03-29T05:08:01;8.80;;;5.60;;
15871;SDS011;8035;51.962;7.162;2023-03-29T05:10:27;6.40;;;5.30;;
15871;SDS011;8035;51.962;7.162;2023-03-29T05:12:53;7.43;;;5.90;;
15871;SDS011;8035;51.962;7.162;2023-03-29T05:15:20;7.43;;;5.90;;
15871;SDS011;8035;51.962;7.162;2023-03-29T05:17:46;11.43;;;6.27;;
15871;SDS011;8035;51.962;7.162;2023-03-29T05:20:31;6.23;;;5.03;;
15871;SDS011;8035;51.962;7.162;2023-03-29T05:22:57;9.87;;;6.10;;
15871;SDS011;8035;51.962;7.162;2023-03-29T05:25:23;6.80;;;5.30;;
15871;SDS011;8035;51.962;7.162;2023-03-29T05:27:50;6.50;;;5.27;;
15871;SDS011;8035;51.962;7.162;2023-03-29T05:30:17;8.30;;;5.40;;
15871;SDS011;8035;51.962;7.162;2023-03-29T05:32:43;9.37;;;5.63;;
15871;SDS011;8035;51.962;7.162;2023-03-29T05:35:09;7.90;;;5.60;;
15871;SDS011;8035;51.962;7.162;2023-03-29T05:37:35;7.67;;;5.37;;
15871;SDS011;8035;51.962;7.162;2023-03-29T05:40:03;9.47;;;5.70;;
15871;SDS011;8035;51.962;7.162;2023-03-29T05:42:31;9.47;;;5.20;;
15871;SDS011;8035;51.962;7.162;2023-03-29T05:44:58;7.27;;;5.40;;
15871;SDS011;8035;51.962;7.162;2023-03-29T05:47:24;8.20;;;5.90;;
15871;SDS011;8035;51.962;7.162;2023-03-29T05:49:50;8.50;;;5.93;;
15871;SDS011;8035;51.962;7.162;2023-03-29T05:52:17;8.20;;;6.57;;
15871;SDS011;8035;51.962;7.162;2023-03-29T05:54:45;7.93;;;6.20;;
15871;SDS011;8035;51.962;7.162;2023-03-29T05:57:11;8.57;;;6.50;;
15871;SDS011;8035;51.962;7.162;2023-03-29T05:59:37;9.67;;;7.10;;
15871;SDS011;8035;51.962;7.162;2023-03-29T06:02:03;9.20;;;7.13;;
15871;SDS011;8035;51.962;7.162;2023-03-29T06:04:29;10.80;;;7.20;;
15871;SDS011;8035;51.962;7.162;2023-03-29T06:06:57;12.07;;;8.13;;
15871;SDS011;8035;51.962;7.162;2023-03-29T06:09:26;10.73;;;8.07;;
15871;SDS011;8035;51.962;7.162;2023-03-29T06:11:52;11.53;;;7.90;;
15871;SDS011;8035;51.962;7.162;2023-03-29T06:14:20;12.17;;;8.00;;
15871;SDS011;8035;51.962;7.162;2023-03-29T06:16:48;11.90;;;7.10;;
15871;SDS011;8035;51.962;7.162;2023-03-29T06:19:14;10.63;;;7.77;;
15871;SDS011;8035;51.962;7.162;2023-03-29T06:21:40;12.97;;;8.70;;
15871;SDS011;8035;51.962;7.162;2023-03-29T06:24:06;13.03;;;8.60;;
15871;SDS011;8035;51.962;7.162;2023-03-29T06:26:32;11.97;;;8.67;;
15871;SDS011;8035;51.962;7.162;2023-03-29T06:28:59;9.43;;;7.80;;
15871;SDS011;8035;51.962;7.162;2023-03-29T06:31:25;11.13;;;8.03;;
15871;SDS011;8035;51.962;7.162;2023-03-29T06:33:51;11.43;;;8.30;;
15871;SDS011;8035;51.962;7.162;2023-03-29T06:36:17;11.40;;;8.60;;
15871;SDS011;8035;51.962;7.162;2023-03-29T06:38:44;11.47;;;9.00;;
15871;SDS011;8035;51.962;7.162;2023-03-29T06:41:10;10.50;;;8.50;;
15871;SDS011;8035;51.962;7.162;2023-03-29T06:43:37;11.83;;;8.07;;
15871;SDS011;8035;51.962;7.162;2023-03-29T06:46:03;11.97;;;8.53;;
15871;SDS011;8035;51.962;7.162;2023-03-29T06:48:35;10.53;;;8.00;;
15871;SDS011;8035;51.962;7.162;2023-03-29T06:51:01;11.77;;;8.77;;
15871;SDS011;8035;51.962;7.162;2023-03-29T06:53:27;9.07;;;7.03;;
15871;SDS011;8035;51.962;7.162;2023-03-29T06:55:53;10.50;;;7.40;;
15871;SDS011;8035;51.962;7.162;2023-03-29T06:58:19;12.20;;;6.60;;
15871;SDS011;8035;51.962;7.162;2023-03-29T07:00:45;9.67;;;6.97;;
15871;SDS011;8035;51.962;7.162;2023-03-29T07:03:11;12.17;;;6.90;;
15871;SDS011;8035;51.962;7.162;2023-03-29T07:05:44;9.00;;;6.57;;
15871;SDS011;8035;51.962;7.162;2023-03-29T07:08:10;8.27;;;5.90;;
15871;SDS011;8035;51.962;7.162;2023-03-29T07:10:40;12.17;;;6.80;;
15871;SDS011;8035;51.962;7.162;2023-03-29T07:13:07;9.63;;;6.30;;
15871;SDS011;8035;51.962;7.162;2023-03-29T07:15:36;8.70;;;5.80;;
15871;SDS011;8035;51.962;7.162;2023-03-29T07:18:02;8.03;;;6.20;;
15871;SDS011;8035;51.962;7.162;2023-03-29T07:20:29;10.67;;;5.77;;
15871;SDS011;8035;51.962;7.162;2023-03-29T07:22:55;8.30;;;5.53;;
15871;SDS011;8035;51.962;7.162;2023-03-29T07:25:21;8.60;;;5.90;;
15871;SDS011;8035;51.962;7.162;2023-03-29T07:27:47;6.80;;;5.73;;
15871;SDS011;8035;51.962;7.162;2023-03-29T07:30:15;9.67;;;5.60;;
15871;SDS011;8035;51.962;7.162;2023-03-29T07:32:42;9.87;;;6.27;;
15871;SDS011;8035;51.962;7.162;2023-03-29T07:35:09;7.77;;;5.27;;
15871;SDS011;8035;51.962;7.162;2023-03-29T07:37:36;6.80;;;5.37;;
15871;SDS011;8035;51.962;7.162;2023-03-29T07:40:03;9.33;;;5.93;;
15871;SDS011;8035;51.962;7.162;2023-03-29T07:42:36;7.73;;;4.63;;
15871;SDS011;8035;51.962;7.162;2023-03-29T07:45:03;7.40;;;5.00;;
15871;SDS011;8035;51.962;7.162;2023-03-29T07:47:29;6.90;;;4.87;;
15871;SDS011;8035;51.962;7.162;2023-03-29T07:49:55;5.60;;;4.53;;
15871;SDS011;8035;51.962;7.162;2023-03-29T07:52:23;8.43;;;4.93;;
15871;SDS011;8035;51.962;7.162;2023-03-29T07:54:52;7.83;;;5.33;;
15871;SDS011;8035;51.962;7.162;2023-03-29T07:57:18;7.93;;;5.00;;
15871;SDS011;8035;51.962;7.162;2023-03-29T07:59:44;6.67;;;5.07;;
15871;SDS011;8035;51.962;7.162;2023-03-29T08:02:10;6.10;;;4.70;;
15871;SDS011;8035;51.962;7.162;2023-03-29T08:04:36;5.67;;;4.90;;
15871;SDS011;8035;51.962;7.162;2023-03-29T08:07:02;8.80;;;4.90;;
15871;SDS011;8035;51.962;7.162;2023-03-29T08:09:28;6.10;;;4.43;;
15871;SDS011;8035;51.962;7.162;2023-03-29T08:11:54;5.57;;;4.40;;
15871;SDS011;8035;51.962;7.162;2023-03-29T08:14:21;7.63;;;4.57;;
15871;SDS011;8035;51.962;7.162;2023-03-29T08:16:47;6.47;;;4.30;;
15871;SDS011;8035;51.962;7.162;2023-03-29T08:19:13;5.80;;;4.60;;
15871;SDS011;8035;51.962;7.162;2023-03-29T08:21:40;6.07;;;4.27;;
15871;SDS011;8035;51.962;7.162;2023-03-29T08:24:06;6.17;;;4.33;;
15871;SDS011;8035;51.962;7.162;2023-03-29T08:26:32;6.63;;;4.80;;
15871;SDS011;8035;51.962;7.162;2023-03-29T08:28:58;5.00;;;4.00;;
15871;SDS011;8035;51.962;7.162;2023-03-29T08:31:24;8.30;;;4.77;;
15871;SDS011;8035;51.962;7.162;2023-03-29T08:33:51;7.50;;;4.30;;
15871;SDS011;8035;51.962;7.162;2023-03-29T08:36:17;7.33;;;4.57;;
15871;SDS011;8035;51.962;7.162;2023-03-29T08:38:43;5.37;;;4.47;;
15871;SDS011;8035;51.962;7.162;2023-03-29T08:44:03;7.27;;;4.13;;
15871;SDS011;8035;51.962;7.162;2023-03-29T08:49:01;10.40;;;4.67;;
15871;SDS011;8035;51.962;7.162;2023-03-29T08:51:29;5.93;;;4.70;;
15871;SDS011;8035;51.962;7.162;2023-03-29T08:54:08;7.43;;;4.53;;
15871;SDS011;8035;51.962;7.162;2023-03-29T08:56:36;11.60;;;5.00;;
15871;SDS011;8035;51.962;7.162;2023-03-29T08:59:04;5.67;;;4.43;;
15871;SDS011;8035;51.962;7.162;2023-03-29T09:01:37;5.07;;;4.33;;
15871;SDS011;8035;51.962;7.162;2023-03-29T09:04:16;5.40;;;4.40;;
15871;SDS011;8035;51.962;7.162;2023-03-29T09:06:44;6.13;;;4.20;;
15871;SDS011;8035;51.962;7.162;2023-03-29T09:09:16;5.20;;;3.93;;
15871;SDS011;8035;51.962;7.162;2023-03-29T09:32:20;5.87;;;4.87;;
15871;SDS011;8035;51.962;7.162;2023-03-29T09:37:34;8.10;;;5.30;;
15871;SDS011;8035;51.962;7.162;2023-03-29T09:40:02;5.77;;;4.83;;
15871;SDS011;8035;51.962;7.162;2023-03-29T09:42:31;7.97;;;5.40;;
15871;SDS011;8035;51.962;7.162;2023-03-29T09:45:02;9.07;;;5.33;;
15871;SDS011;8035;51.962;7.162;2023-03-29T09:50:03;8.43;;;6.20;;
15871;SDS011;8035;51.962;7.162;2023-03-29T09:52:31;8.23;;;5.77;;
15871;SDS011;8035;51.962;7.162;2023-03-29T09:55:02;7.50;;;5.30;;
15871;SDS011;8035;51.962;7.162;2023-03-29T09:57:29;11.63;;;5.40;;
15871;SDS011;8035;51.962;7.162;2023-03-29T09:59:55;8.07;;;5.40;;
15871;SDS011;8035;51.962;7.162;2023-03-29T10:02:23;9.50;;;5.87;;
15871;SDS011;8035;51.962;7.162;2023-03-29T10:04:52;6.97;;;5.00;;
15871;SDS011;8035;51.962;7.162;2023-03-29T10:07:40;9.63;;;5.93;;
15871;SDS011;8035;51.962;7.162;2023-03-29T10:10:17;9.07;;;5.90;;
15871;SDS011;8035;51.962;7.162;2023-03-29T10:12:47;7.87;;;5.53;;
15871;SDS011;8035;51.962;7.162;2023-03-29T10:15:14;11.37;;;6.73;;
15871;SDS011;8035;51.962;7.162;2023-03-29T10:17:41;9.53;;;6.87;;
15871;SDS011;8035;51.962;7.162;2023-03-29T10:20:12;9.17;;;6.83;;
15871;SDS011;8035;51.962;7.162;2023-03-29T10:22:57;8.93;;;6.10;;
15871;SDS011;8035;51.962;7.162;2023-03-29T10:25:33;9.63;;;7.67;;
15871;SDS011;8035;51.962;7.162;2023-03-29T10:28:03;9.23;;;7.70;;
15871;SDS011;8035;51.962;7.162;2023-03-29T10:30:30;11.77;;;8.27;;
15871;SDS011;8035;51.962;7.162;2023-03-29T10:32:57;12.37;;;9.03;;
15871;SDS011;8035;51.962;7.162;2023-03-29T10:35:27;16.90;;;9.60;;
15871;SDS011;8035;51.962;7.162;2023-03-29T10:37:54;11.20;;;9.10;;
15871;SDS011;8035;51.962;7.162;2023-03-29T10:42:51;11.07;;;8.60;;
15871;SDS011;8035;51.962;7.162;2023-03-29T10:45:26;10.43;;;9.23;;
15871;SDS011;8035;51.962;7.162;2023-03-29T10:47:53;9.17;;;7.50;;
15871;SDS011;8035;51.962;7.162;2023-03-29T10:50:20;11.07;;;8.00;;
15871;SDS011;8035;51.962;7.162;2023-03-29T10:52:46;12.30;;;9.00;;
15871;SDS011;8035;51.962;7.162;2023-03-29T10:55:14;12.40;;;8.70;;
15871;SDS011;8035;51.962;7.162;2023-03-29T11:05:31;11.93;;;9.97;;
15871;SDS011;8035;51.962;7.162;2023-03-29T11:13:17;14.10;;;11.23;;
15871;SDS011;8035;51.962;7.162;2023-03-29T11:28:33;18.23;;;14.63;;
15871;SDS011;8035;51.962;7.162;2023-03-29T11:41:17;13.37;;;11.17;;
15871;SDS011;8035;51.962;7.162;2023-03-29T11:43:53;13.77;;;11.07;;
15871;SDS011;8035;51.962;7.162;2023-03-29T11:46:38;14.03;;;11.37;;
15871;SDS011;8035;51.962;7.162;2023-03-29T11:49:09;12.83;;;11.03;;
15871;SDS011;8035;51.962;7.162;2023-03-29T11:51:39;13.30;;;10.13;;
15871;SDS011;8035;51.962;7.162;2023-03-29T11:54:11;11.97;;;10.20;;
15871;SDS011;8035;51.962;7.162;2023-03-29T11:56:43;14.20;;;9.53;;
15871;SDS011;8035;51.962;7.162;2023-03-29T11:59:20;11.17;;;9.33;;
15871;SDS011;8035;51.962;7.162;2023-03-29T12:01:49;10.83;;;8.87;;
15871;SDS011;8035;51.962;7.162;2023-03-29T12:04:18;13.47;;;9.40;;
15871;SDS011;8035;51.962;7.162;2023-03-29T12:11:44;10.63;;;8.50;;
15871;SDS011;8035;51.962;7.162;2023-03-29T12:14:20;10.87;;;8.80;;
15871;SDS011;8035;51.962;7.162;2023-03-29T12:16:50;12.83;;;7.93;;
15871;SDS011;8035;51.962;7.162;2023-03-29T12:19:19;12.73;;;8.77;;
15871;SDS011;8035;51.962;7.162;2023-03-29T12:21:46;9.40;;;8.47;;
15871;SDS011;8035;51.962;7.162;2023-03-29T12:24:14;10.50;;;8.17;;
15871;SDS011;8035;51.962;7.162;2023-03-29T12:39:45;13.73;;;9.97;;
15871;SDS011;8035;51.962;7.162;2023-03-29T12:42:12;14.97;;;10.70;;
15871;SDS011;8035;51.962;7.162;2023-03-29T12:44:40;10.13;;;9.13;;
15871;SDS011;8035;51.962;7.162;2023-03-29T12:47:08;13.37;;;9.80;;
15871;SDS011;8035;51.962;7.162;2023-03-29T12:49:37;14.10;;;9.37;;
15871;SDS011;8035;51.962;7.162;2023-03-29T12:52:15;14.73;;;9.50;;
15871;SDS011;8035;51.962;7.162;2023-03-29T12:54:51;11.90;;;8.40;;
15871;SDS011;8035;51.962;7.162;2023-03-29T12:57:25;16.33;;;9.10;;
15871;SDS011;8035;51.962;7.162;2023-03-29T12:59:52;10.27;;;8.97;;
15871;SDS011;8035;51.962;7.162;2023-03-29T13:09:49;11.83;;;9.93;;
15871;SDS011;8035;51.962;7.162;2023-03-29T13:14:45;11.30;;;9.97;;
15871;SDS011;8035;51.962;7.162;2023-03-29T13:17:21;10.23;;;9.13;;
15871;SDS011;8035;51.962;7.162;2023-03-29T13:27:28;11.07;;;8.30;;
15871;SDS011;8035;51.962;7.162;2023-03-29T13:43:07;11.67;;;9.13;;
15871;SDS011;8035;51.962;7.162;2023-03-29T13:45:34;11.47;;;8.60;;
15871;SDS011;8035;51.962;7.162;2023-03-29T13:50:56;10.20;;;8.30;;
15871;SDS011;8035;51.962;7.162;2023-03-29T13:53:30;19.07;;;8.97;;
15871;SDS011;8035;51.962;7.162;2023-03-29T13:56:01;9.67;;;8.20;;
15871;SDS011;8035;51.962;7.162;2023-03-29T13:58:38;13.07;;;8.30;;
15871;SDS011;8035;51.962;7.162;2023-03-29T14:03:44;12.90;;;7.93;;
15871;SDS011;8035;51.962;7.162;2023-03-29T14:06:13;11.70;;;8.63;;
15871;SDS011;8035;51.962;7.162;2023-03-29T14:08:45;11.03;;;8.10;;
15871;SDS011;8035;51.962;7.162;2023-03-29T14:11:31;11.60;;;8.27;;
15871;SDS011;8035;51.962;7.162;2023-03-29T14:13:58;10.70;;;7.97;;
15871;SDS011;8035;51.962;7.162;2023-03-29T14:16:26;13.30;;;7.93;;
15871;SDS011;8035;51.962;7.162;2023-03-29T14:18:56;10.07;;;7.90;;
15871;SDS011;8035;51.962;7.162;2023-03-29T14:21:23;9.60;;;7.80;;
15871;SDS011;8035;51.962;7.162;2023-03-29T14:23:54;10.77;;;7.77;;
15871;SDS011;8035;51.962;7.162;2023-03-29T14:26:28;10.67;;;7.53;;
15871;SDS011;8035;51.962;7.162;2023-03-29T14:28:56;12.10;;;8.10;;
15871;SDS011;8035;51.962;7.162;2023-03-29T14:31:28;12.80;;;7.90;;
15871;SDS011;8035;51.962;7.162;2023-03-29T14:33:55;12.30;;;8.53;;
15871;SDS011;8035;51.962;7.162;2023-03-29T14:36:22;7.67;;;6.53;;
15871;SDS011;8035;51.962;7.162;2023-03-29T14:38:51;8.33;;;7.00;;
15871;SDS011;8035;51.962;7.162;2023-03-29T14:41:24;11.33;;;7.00;;
15871;SDS011;8035;51.962;7.162;2023-03-29T14:43:58;8.80;;;6.83;;
15871;SDS011;8035;51.962;7.162;2023-03-29T14:46:24;10.83;;;7.03;;
15871;SDS011;8035;51.962;7.162;2023-03-29T14:48:51;11.53;;;6.57;;
15871;SDS011;8035;51.962;7.162;2023-03-29T14:51:18;7.67;;;6.70;;
15871;SDS011;8035;51.962;7.162;2023-03-29T14:53:44;7.27;;;6.17;;
15871;SDS011;8035;51.962;7.162;2023-03-29T14:56:12;10.33;;;6.63;;
15871;SDS011;8035;51.962;7.162;2023-03-29T14:58:42;9.00;;;5.93;;
15871;SDS011;8035;51.962;7.162;2023-03-29T15:01:17;8.60;;;5.27;;
15871;SDS011;8035;51.962;7.162;2023-03-29T15:06:30;8.27;;;4.97;;
15871;SDS011;8035;51.962;7.162;2023-03-29T15:09:01;7.27;;;5.10;;
15871;SDS011;8035;51.962;7.162;2023-03-29T15:11:28;10.87;;;5.23;;
15871;SDS011;8035;51.962;7.162;2023-03-29T15:14:00;5.83;;;4.90;;
15871;SDS011;8035;51.962;7.162;2023-03-29T15:16:39;8.57;;;4.67;;
15871;SDS011;8035;51.962;7.162;2023-03-29T15:19:14;8.07;;;5.57;;
15871;SDS011;8035;51.962;7.162;2023-03-29T15:21:42;7.80;;;5.30;;
15871;SDS011;8035;51.962;7.162;2023-03-29T15:24:16;7.43;;;4.80;;
15871;SDS011;8035;51.962;7.162;2023-03-29T15:27:10;6.40;;;4.70;;
15871;SDS011;8035;51.962;7.162;2023-03-29T15:29:40;7.13;;;4.60;;
15871;SDS011;8035;51.962;7.162;2023-03-29T15:32:08;7.30;;;5.00;;
15871;SDS011;8035;51.962;7.162;2023-03-29T15:34:35;7.10;;;4.80;;
15871;SDS011;8035;51.962;7.162;2023-03-29T15:37:02;11.63;;;6.50;;
15871;SDS011;8035;51.962;7.162;2023-03-29T15:39:28;7.60;;;5.17;;
15871;SDS011;8035;51.962;7.162;2023-03-29T15:41:54;9.30;;;6.83;;
15871;SDS011;8035;51.962;7.162;2023-03-29T15:44:23;10.17;;;6.83;;
15871;SDS011;8035;51.962;7.162;2023-03-29T15:46:52;10.30;;;7.30;;
15871;SDS011;8035;51.962;7.162;2023-03-29T15:49:19;11.83;;;8.73;;
15871;SDS011;8035;51.962;7.162;2023-03-29T15:51:45;6.93;;;5.07;;
15871;SDS011;8035;51.962;7.162;2023-03-29T15:54:11;7.07;;;5.33;;
15871;SDS011;8035;51.962;7.162;2023-03-29T15:56:38;8.07;;;5.17;;
15871;SDS011;8035;51.962;7.162;2023-03-29T15:59:11;6.77;;;4.90;;
15871;SDS011;8035;51.962;7.162;2023-03-29T16:01:37;5.97;;;4.30;;
15871;SDS011;8035;51.962;7.162;2023-03-29T16:04:08;9.03;;;5.20;;
15871;SDS011;8035;51.962;7.162;2023-03-29T16:06:36;6.23;;;4.77;;
15871;SDS011;8035;51.962;7.162;2023-03-29T16:09:02;7.70;;;4.97;;
15871;SDS011;8035;51.962;7.162;2023-03-29T16:11:30;5.20;;;4.53;;
15871;SDS011;8035;51.962;7.162;2023-03-29T16:13:56;7.90;;;5.13;;
15871;SDS011;8035;51.962;7.162;2023-03-29T16:16:22;8.40;;;4.80;;
15871;SDS011;8035;51.962;7.162;2023-03-29T16:18:47;6.40;;;4.57;;
15871;SDS011;8035;51.962;7.162;2023-03-29T16:21:14;8.00;;;4.60;;
15871;SDS011;8035;51.962;7.162;2023-03-29T16:23:42;9.33;;;4.73;;
15871;SDS011;8035;51.962;7.162;2023-03-29T16:26:26;7.27;;;4.50;;
15871;SDS011;8035;51.962;7.162;2023-03-29T16:28:54;10.33;;;4.90;;
15871;SDS011;8035;51.962;7.162;2023-03-29T16:31:20;7.17;;;4.43;;
15871;SDS011;8035;51.962;7.162;2023-03-29T16:33:48;5.53;;;4.67;;
15871;SDS011;8035;51.962;7.162;2023-03-29T16:36:14;5.20;;;4.37;;
15871;SDS011;8035;51.962;7.162;2023-03-29T16:38:40;6.97;;;4.50;;
15871;SDS011;8035;51.962;7.162;2023-03-29T16:41:06;6.40;;;4.60;;
15871;SDS011;8035;51.962;7.162;2023-03-29T16:43:51;7.87;;;4.67;;
15871;SDS011;8035;51.962;7.162;2023-03-29T16:46:17;7.47;;;4.30;;
15871;SDS011;8035;51.962;7.162;2023-03-29T16:48:42;7.03;;;4.83;;
15871;SDS011;8035;51.962;7.162;2023-03-29T16:51:09;7.57;;;4.60;;
15871;SDS011;8035;51.962;7.162;2023-03-29T16:53:35;6.13;;;5.00;;
15871;SDS011;8035;51.962;7.162;2023-03-29T16:56:01;6.20;;;4.97;;
15871;SDS011;8035;51.962;7.162;2023-03-29T16:58:27;7.87;;;5.03;;
15871;SDS011;8035;51.962;7.162;2023-03-29T17:00:53;7.33;;;5.67;;
15871;SDS011;8035;51.962;7.162;2023-03-29T17:03:20;7.57;;;5.90;;
15871;SDS011;8035;51.962;7.162;2023-03-29T17:05:47;5.90;;;5.20;;
15871;SDS011;8035;51.962;7.162;2023-03-29T17:08:14;6.53;;;4.83;;
15871;SDS011;8035;51.962;7.162;2023-03-29T17:10:41;6.67;;;5.00;;
15871;SDS011;8035;51.962;7.162;2023-03-29T17:13:07;7.27;;;4.90;;
15871;SDS011;8035;51.962;7.162;2023-03-29T17:15:33;5.33;;;4.73;;
15871;SDS011;8035;51.962;7.162;2023-03-29T17:17:58;7.63;;;4.80;;
15871;SDS011;8035;51.962;7.162;2023-03-29T17:20:24;6.93;;;4.87;;
15871;SDS011;8035;51.962;7.162;2023-03-29T17:22:50;5.23;;;4.20;;
15871;SDS011;8035;51.962;7.162;2023-03-29T17:25:17;7.97;;;5.03;;
15871;SDS011;8035;51.962;7.162;2023-03-29T17:27:43;8.50;;;5.33;;